Time;durP1;ratioP1;P1;durP2;ratioP2;P2;SDS_P1;SDS_P2;PMS_P1;PMS_P2;Temp;Humidity;BMP_temperature;BMP_pressure;BME280_temperature;BME280_humidity;BME280_pressure;Samples;Min_cycle;Max_cycle;Signal;HPM_P1;HPM_P2
2022/03/09 00:02:01;;;;;;;4.50;2.72;;;;;;;;;;6161508;23;20020;-89
2022/03/09 00:04:27;;;;;;;4.82;2.90;;;;;;;;;;6162249;23;20021;-88
2022/03/09 00:06:56;;;;;;;4.72;2.42;;;;;;;;;;6162749;23;20017;-88
2022/03/09 00:09:22;;;;;;;4.88;3.10;;;;;;;;;;6163382;23;20013;-89
2022/03/09 00:11:48;;;;;;;8.63;2.90;;;;;;;;;;6162900;23;20308;-88
2022/03/09 00:14:14;;;;;;;5.28;3.45;;;;;;;;;;6162749;23;20063;-88
2022/03/09 00:16:40;;;;;;;5.25;3.45;;;;;;;;;;6161989;23;20076;-88
2022/03/09 00:19:06;;;;;;;4.95;3.28;;;;;;;;;;6161851;23;20096;-89
2022/03/09 00:21:32;;;;;;;4.90;2.88;;;;;;;;;;6162768;23;20024;-88
2022/03/09 00:24:01;;;;;;;5.80;3.35;;;;;;;;;;6162401;23;20028;-89
2022/03/09 00:26:27;;;;;;;5.93;3.95;;;;;;;;;;6161676;23;20416;-88
2022/03/09 00:28:53;;;;;;;5.30;3.25;;;;;;;;;;6161598;23;20017;-89
2022/03/09 00:31:19;;;;;;;4.97;3.33;;;;;;;;;;6161562;23;20017;-89
2022/03/09 00:33:45;;;;;;;4.85;3.58;;;;;;;;;;6158949;23;20017;-89
2022/03/09 00:36:20;;;;;;;5.18;3.53;;;;;;;;;;6161658;23;20095;-90
2022/03/09 00:38:48;;;;;;;16.38;3.97;;;;;;;;;;6161419;23;20095;-89
2022/03/09 00:41:17;;;;;;;7.45;3.72;;;;;;;;;;6162451;23;20059;-89
2022/03/09 00:43:43;;;;;;;4.78;3.20;;;;;;;;;;6163944;23;20016;-90
2022/03/09 00:46:09;;;;;;;3.88;3.30;;;;;;;;;;6163039;23;20052;-89
2022/03/09 00:48:35;;;;;;;4.22;3.65;;;;;;;;;;6162341;23;20048;-88
2022/03/09 00:51:04;;;;;;;3.95;2.95;;;;;;;;;;6162127;23;20525;-89
2022/03/09 00:53:30;;;;;;;5.03;3.45;;;;;;;;;;6162221;23;20017;-89
2022/03/09 00:55:56;;;;;;;5.95;3.55;;;;;;;;;;6163366;23;20538;-89
2022/03/09 00:58:22;;;;;;;6.82;3.53;;;;;;;;;;6161695;23;20028;-89
2022/03/09 01:00:48;;;;;;;5.38;3.58;;;;;;;;;;6161200;23;20044;-89
2022/03/09 01:03:18;;;;;;;5.65;3.58;;;;;;;;;;6163427;23;20025;-89
2022/03/09 01:05:44;;;;;;;3.85;3.10;;;;;;;;;;6161717;23;20024;-89
2022/03/09 01:08:10;;;;;;;3.50;2.97;;;;;;;;;;6162163;23;20017;-89
2022/03/09 01:10:36;;;;;;;4.38;3.47;;;;;;;;;;6161762;23;20028;-89
2022/03/09 01:13:03;;;;;;;4.60;3.40;;;;;;;;;;6161988;23;20025;-89
2022/03/09 01:15:29;;;;;;;4.93;3.10;;;;;;;;;;6161391;23;20028;-89
2022/03/09 01:17:58;;;;;;;4.82;3.63;;;;;;;;;;6162850;23;20017;-89
2022/03/09 01:20:24;;;;;;;6.05;3.47;;;;;;;;;;6162179;23;20013;-89
2022/03/09 01:22:52;;;;;;;5.57;3.85;;;;;;;;;;6161284;23;20447;-89
2022/03/09 01:25:22;;;;;;;4.45;3.15;;;;;;;;;;6162799;23;20330;-88
2022/03/09 01:27:51;;;;;;;4.60;3.08;;;;;;;;;;6163187;23;20021;-89
2022/03/09 01:30:17;;;;;;;3.63;3.22;;;;;;;;;;6162642;23;20017;-89
2022/03/09 01:32:47;;;;;;;5.03;4.22;;;;;;;;;;6163425;23;20021;-89
2022/03/09 01:35:13;;;;;;;5.03;3.28;;;;;;;;;;6164350;23;20017;-89
2022/03/09 01:37:39;;;;;;;3.70;3.15;;;;;;;;;;6162943;23;20013;-89
2022/03/09 01:40:08;;;;;;;4.68;3.20;;;;;;;;;;6161831;23;20486;-89
2022/03/09 01:42:37;;;;;;;5.07;3.40;;;;;;;;;;6162953;23;20013;-89
2022/03/09 01:45:04;;;;;;;5.25;4.32;;;;;;;;;;6162984;23;20028;-89
2022/03/09 01:47:33;;;;;;;5.40;4.03;;;;;;;;;;6164434;23;20351;-89
2022/03/09 01:49:59;;;;;;;4.57;3.40;;;;;;;;;;6164148;23;20049;-89
2022/03/09 01:52:25;;;;;;;7.30;3.67;;;;;;;;;;6164659;23;20339;-89
2022/03/09 01:54:57;;;;;;;4.35;3.15;;;;;;;;;;6165211;23;20328;-89
2022/03/09 01:57:23;;;;;;;5.30;3.95;;;;;;;;;;6164453;23;20021;-89
2022/03/09 01:59:50;;;;;;;4.80;3.63;;;;;;;;;;6164901;23;20068;-89
2022/03/09 02:02:23;;;;;;;6.65;4.10;;;;;;;;;;6164151;23;20031;-89
2022/03/09 02:04:52;;;;;;;5.70;4.32;;;;;;;;;;6163693;23;20009;-89
2022/03/09 02:09:41;;;;;;;5.05;3.78;;;;;;;;;;6164429;23;20021;-90
2022/03/09 02:10:08;;;;;;;6.78;4.30;;;;;;;;;;6189075;23;20024;-89
2022/03/09 02:12:42;;;;;;;4.85;3.63;;;;;;;;;;6165936;23;20028;-89
2022/03/09 02:15:09;;;;;;;7.28;4.35;;;;;;;;;;6163631;23;20071;-89
2022/03/09 02:17:35;;;;;;;8.07;4.28;;;;;;;;;;6163915;23;20021;-89
2022/03/09 02:20:02;;;;;;;5.28;4.07;;;;;;;;;;6164047;23;20320;-88
2022/03/09 02:22:32;;;;;;;7.38;4.60;;;;;;;;;;6138668;23;20018;-88
2022/03/09 02:25:01;;;;;;;9.82;4.75;;;;;;;;;;6110162;23;20084;-88
2022/03/09 02:27:30;;;;;;;5.53;4.10;;;;;;;;;;6109873;23;20018;-89
2022/03/09 02:29:57;;;;;;;3.80;3.22;;;;;;;;;;6110300;23;20022;-89
2022/03/09 02:32:26;;;;;;;7.00;3.90;;;;;;;;;;6109968;23;20057;-88
2022/03/09 02:34:52;;;;;;;7.22;3.90;;;;;;;;;;6109412;23;20024;-88
2022/03/09 02:37:18;;;;;;;6.47;4.65;;;;;;;;;;6109588;23;20028;-88
2022/03/09 02:39:44;;;;;;;10.57;4.57;;;;;;;;;;6109442;23;20025;-89
2022/03/09 02:42:12;;;;;;;7.35;4.85;;;;;;;;;;6109108;23;20021;-88
2022/03/09 02:44:38;;;;;;;7.97;5.53;;;;;;;;;;6109318;23;20014;-89
2022/03/09 02:47:07;;;;;;;6.93;4.72;;;;;;;;;;6134228;23;20021;-88
2022/03/09 02:49:45;;;;;;;5.80;4.45;;;;;;;;;;6111392;23;20339;-89
2022/03/09 02:52:11;;;;;;;8.02;4.80;;;;;;;;;;6109502;23;20060;-89
2022/03/09 02:54:43;;;;;;;10.30;4.72;;;;;;;;;;6134389;23;20127;-88
2022/03/09 02:57:14;;;;;;;8.60;4.30;;;;;;;;;;6133231;23;20021;-90
2022/03/09 02:59:41;;;;;;;8.02;4.80;;;;;;;;;;6108863;23;20325;-88
2022/03/09 03:02:07;;;;;;;6.18;4.20;;;;;;;;;;6109371;23;20025;-89
2022/03/09 03:04:33;;;;;;;7.35;4.65;;;;;;;;;;6110372;23;20013;-89
2022/03/09 03:06:59;;;;;;;5.82;4.25;;;;;;;;;;6110723;23;20022;-89
2022/03/09 03:09:28;;;;;;;7.05;4.85;;;;;;;;;;6133643;23;20024;-88
2022/03/09 03:11:54;;;;;;;10.48;4.68;;;;;;;;;;6133566;23;20049;-88
2022/03/09 03:14:20;;;;;;;6.50;4.43;;;;;;;;;;6108731;23;20352;-89
2022/03/09 03:16:47;;;;;;;5.10;4.32;;;;;;;;;;6109948;23;20027;-88
2022/03/09 03:19:20;;;;;;;5.65;4.57;;;;;;;;;;6134563;23;20045;-88
2022/03/09 03:21:46;;;;;;;5.43;4.00;;;;;;;;;;6124989;23;20020;-89
2022/03/09 03:24:12;;;;;;;8.93;5.45;;;;;;;;;;6138257;23;20024;-88
2022/03/09 03:26:39;;;;;;;7.25;4.90;;;;;;;;;;6138773;23;20025;-88
2022/03/09 03:29:05;;;;;;;4.95;4.25;;;;;;;;;;6163539;23;20013;-88
2022/03/09 03:31:31;;;;;;;10.38;5.30;;;;;;;;;;6137815;23;20056;-88
2022/03/09 03:34:00;;;;;;;6.60;4.85;;;;;;;;;;6138516;23;20016;-88
2022/03/09 03:36:26;;;;;;;8.52;4.72;;;;;;;;;;6137940;23;20027;-88
2022/03/09 03:38:53;;;;;;;9.18;4.95;;;;;;;;;;6139883;23;20017;-88
2022/03/09 03:41:22;;;;;;;12.63;5.28;;;;;;;;;;6140071;23;20453;-88
2022/03/09 03:43:50;;;;;;;9.07;5.45;;;;;;;;;;6139036;23;20097;-89
2022/03/09 03:46:16;;;;;;;7.43;5.70;;;;;;;;;;6138844;23;20060;-89
2022/03/09 03:48:44;;;;;;;9.07;5.03;;;;;;;;;;6139076;23;20013;-88
2022/03/09 03:51:10;;;;;;;6.80;5.30;;;;;;;;;;6139973;23;20043;-88
2022/03/09 03:53:36;;;;;;;8.73;4.82;;;;;;;;;;6138637;23;20450;-88
2022/03/09 03:56:02;;;;;;;7.88;5.30;;;;;;;;;;6138441;23;20017;-89
2022/03/09 03:58:31;;;;;;;9.60;5.63;;;;;;;;;;6138901;23;20017;-89
2022/03/09 04:00:59;;;;;;;8.45;5.20;;;;;;;;;;6139919;23;20025;-89
2022/03/09 04:03:25;;;;;;;10.65;5.30;;;;;;;;;;6139169;23;20017;-88
2022/03/09 04:05:57;;;;;;;6.93;5.35;;;;;;;;;;6138679;23;20017;-88
2022/03/09 04:08:24;;;;;;;8.25;5.25;;;;;;;;;;6138543;23;20067;-88
2022/03/09 04:10:52;;;;;;;11.48;6.47;;;;;;;;;;6138629;23;20017;-88
2022/03/09 04:13:21;;;;;;;8.20;5.05;;;;;;;;;;6138740;23;20065;-88
2022/03/09 04:15:47;;;;;;;7.53;5.40;;;;;;;;;;6140392;23;20537;-88
2022/03/09 04:18:13;;;;;;;12.43;5.85;;;;;;;;;;6163062;23;20013;-88
2022/03/09 04:20:39;;;;;;;8.93;5.53;;;;;;;;;;6139442;23;20017;-88
2022/03/09 04:23:08;;;;;;;9.07;5.63;;;;;;;;;;6114339;23;20029;-89
2022/03/09 04:25:36;;;;;;;9.90;5.65;;;;;;;;;;6109462;23;20040;-88
2022/03/09 04:28:02;;;;;;;13.82;6.60;;;;;;;;;;6107284;23;20018;-89
2022/03/09 04:30:32;;;;;;;10.30;6.28;;;;;;;;;;6133513;23;20017;-88
2022/03/09 04:32:59;;;;;;;10.70;6.00;;;;;;;;;;6109193;23;20021;-88
2022/03/09 04:35:31;;;;;;;11.93;4.97;;;;;;;;;;6107478;23;20045;-88
2022/03/09 04:37:57;;;;;;;9.73;6.18;;;;;;;;;;6107980;23;20025;-88
2022/03/09 04:40:23;;;;;;;9.88;5.90;;;;;;;;;;6107682;23;20518;-89
2022/03/09 04:42:50;;;;;;;12.60;6.82;;;;;;;;;;6132445;23;20013;-88
2022/03/09 04:45:18;;;;;;;8.80;5.90;;;;;;;;;;6108556;23;20048;-89
2022/03/09 04:47:45;;;;;;;8.95;5.53;;;;;;;;;;6108554;23;20017;-88
2022/03/09 04:50:14;;;;;;;12.13;5.78;;;;;;;;;;6107159;23;20013;-88
2022/03/09 04:52:43;;;;;;;6.25;4.93;;;;;;;;;;6107533;23;20455;-88
2022/03/09 04:55:09;;;;;;;9.57;6.10;;;;;;;;;;6109158;23;20017;-88
2022/03/09 04:57:39;;;;;;;9.43;6.15;;;;;;;;;;6108290;23;20021;-87
2022/03/09 05:00:06;;;;;;;11.60;5.78;;;;;;;;;;6107869;23;20521;-88
2022/03/09 05:02:35;;;;;;;7.35;5.28;;;;;;;;;;6107355;23;20474;-88
2022/03/09 05:05:01;;;;;;;8.30;5.50;;;;;;;;;;6107954;23;20048;-88
2022/03/09 05:07:30;;;;;;;8.30;6.40;;;;;;;;;;6109249;23;20017;-87
2022/03/09 05:09:56;;;;;;;10.90;6.13;;;;;;;;;;6133507;23;20022;-88
2022/03/09 05:12:25;;;;;;;9.20;6.28;;;;;;;;;;6131444;23;20021;-87
2022/03/09 05:14:51;;;;;;;9.15;5.38;;;;;;;;;;6107027;23;20013;-88
2022/03/09 05:17:20;;;;;;;14.50;6.05;;;;;;;;;;6132756;23;20030;-87
2022/03/09 05:19:46;;;;;;;9.00;5.93;;;;;;;;;;6132190;23;20017;-88
2022/03/09 05:22:12;;;;;;;10.15;5.80;;;;;;;;;;6120620;23;20044;-89
2022/03/09 05:24:41;;;;;;;7.25;5.03;;;;;;;;;;6139571;23;20053;-89
2022/03/09 05:27:07;;;;;;;8.90;6.15;;;;;;;;;;6139788;23;20053;-89
2022/03/09 05:29:42;;;;;;;9.30;6.13;;;;;;;;;;6164810;23;20072;-88
2022/03/09 05:32:08;;;;;;;9.20;5.20;;;;;;;;;;6164210;23;20018;-89
2022/03/09 05:34:35;;;;;;;10.00;6.35;;;;;;;;;;6163827;23;20044;-90
2022/03/09 05:37:01;;;;;;;9.43;5.88;;;;;;;;;;6165276;23;20090;-88
2022/03/09 05:39:27;;;;;;;9.95;6.40;;;;;;;;;;6140750;23;20023;-89
2022/03/09 05:41:53;;;;;;;15.00;6.30;;;;;;;;;;6140372;23;20072;-89
2022/03/09 05:44:19;;;;;;;12.18;7.13;;;;;;;;;;6140394;23;20071;-89
2022/03/09 05:46:48;;;;;;;8.00;6.20;;;;;;;;;;6139379;23;20080;-90
2022/03/09 05:49:14;;;;;;;9.77;6.57;;;;;;;;;;6138912;23;20013;-90
2022/03/09 05:51:40;;;;;;;9.35;6.47;;;;;;;;;;6164256;23;20020;-90
2022/03/09 05:54:06;;;;;;;8.45;5.53;;;;;;;;;;6162384;23;20049;-90
2022/03/09 05:56:32;;;;;;;9.77;6.35;;;;;;;;;;6138477;23;20049;-89
2022/03/09 05:59:01;;;;;;;9.07;5.88;;;;;;;;;;6141085;23;20092;-90
2022/03/09 06:01:30;;;;;;;9.55;5.75;;;;;;;;;;6141060;23;20435;-90
2022/03/09 06:03:56;;;;;;;11.48;6.65;;;;;;;;;;6139174;23;20028;-90
2022/03/09 06:06:22;;;;;;;9.52;6.30;;;;;;;;;;6139694;23;20072;-91
2022/03/09 06:08:48;;;;;;;9.93;5.95;;;;;;;;;;6139794;23;20028;-90
2022/03/09 06:11:14;;;;;;;16.90;8.43;;;;;;;;;;6140553;23;20053;-91
2022/03/09 06:13:40;;;;;;;8.75;5.90;;;;;;;;;;6139579;23;20096;-87
2022/03/09 06:16:09;;;;;;;8.77;6.05;;;;;;;;;;6140910;23;20168;-89
2022/03/09 06:18:35;;;;;;;11.43;6.60;;;;;;;;;;6165993;23;20017;-91
2022/03/09 06:21:01;;;;;;;9.48;6.32;;;;;;;;;;6141148;23;20020;-89
2022/03/09 06:23:27;;;;;;;9.50;6.05;;;;;;;;;;6114187;23;20022;-90
2022/03/09 06:25:53;;;;;;;8.55;6.13;;;;;;;;;;6111108;23;20407;-90
2022/03/09 06:28:20;;;;;;;10.10;6.75;;;;;;;;;;6112661;23;20017;-89
2022/03/09 06:30:46;;;;;;;8.70;6.05;;;;;;;;;;6160627;23;20462;-88
2022/03/09 06:33:12;;;;;;;11.48;6.95;;;;;;;;;;6108290;23;20400;-86
2022/03/09 06:35:38;;;;;;;11.90;6.07;;;;;;;;;;6161504;23;20017;-87
2022/03/09 06:38:05;;;;;;;11.20;6.78;;;;;;;;;;6110226;23;20075;-87
2022/03/09 06:40:31;;;;;;;11.63;6.40;;;;;;;;;;6110166;23;20014;-86
2022/03/09 06:42:59;;;;;;;9.90;5.95;;;;;;;;;;6134438;23;20028;-88
2022/03/09 06:45:26;;;;;;;10.40;6.07;;;;;;;;;;6109671;23;20024;-88
2022/03/09 06:47:52;;;;;;;8.65;6.28;;;;;;;;;;6110668;23;20018;-89
2022/03/09 06:50:18;;;;;;;9.75;5.95;;;;;;;;;;6110175;23;20013;-88
2022/03/09 06:52:44;;;;;;;11.00;6.05;;;;;;;;;;6109774;23;20018;-87
2022/03/09 06:55:12;;;;;;;11.27;6.55;;;;;;;;;;6110674;23;20017;-87
2022/03/09 06:57:41;;;;;;;14.85;6.65;;;;;;;;;;6109322;23;20021;-87
2022/03/09 07:00:08;;;;;;;8.07;5.95;;;;;;;;;;6108768;23;20022;-91
2022/03/09 07:02:34;;;;;;;10.20;6.32;;;;;;;;;;6110510;23;20324;-88
2022/03/09 07:05:01;;;;;;;10.85;6.68;;;;;;;;;;6132739;23;20017;-90
2022/03/09 07:07:27;;;;;;;11.77;6.18;;;;;;;;;;6134171;23;20107;-89
2022/03/09 07:09:53;;;;;;;9.20;6.93;;;;;;;;;;6110187;23;20025;-88
2022/03/09 07:12:19;;;;;;;14.73;6.53;;;;;;;;;;6109264;23;20391;-90
2022/03/09 07:14:45;;;;;;;13.93;7.45;;;;;;;;;;6134072;23;20045;-89
2022/03/09 07:17:12;;;;;;;11.05;7.53;;;;;;;;;;6109326;23;20148;-89
2022/03/09 07:19:38;;;;;;;12.82;6.93;;;;;;;;;;6110211;23;20049;-90
2022/03/09 07:22:07;;;;;;;15.23;7.65;;;;;;;;;;6120164;23;20013;-90
2022/03/09 07:24:39;;;;;;;8.55;6.38;;;;;;;;;;6139423;23;20021;-89
2022/03/09 07:27:08;;;;;;;13.20;6.97;;;;;;;;;;6150200;23;20036;-90
2022/03/09 07:29:34;;;;;;;9.65;7.10;;;;;;;;;;6169683;23;20059;-91
2022/03/09 07:32:00;;;;;;;8.98;6.03;;;;;;;;;;6169531;23;20055;-90
2022/03/09 07:34:27;;;;;;;15.13;6.88;;;;;;;;;;6169446;23;20073;-88
2022/03/09 07:36:58;;;;;;;12.10;7.82;;;;;;;;;;6169896;23;20074;-89
2022/03/09 07:39:26;;;;;;;11.23;6.80;;;;;;;;;;6193504;23;20017;-86
2022/03/09 07:41:55;;;;;;;10.43;7.05;;;;;;;;;;6168253;23;20017;-88
2022/03/09 07:44:29;;;;;;;11.18;6.78;;;;;;;;;;6168462;23;20021;-90
2022/03/09 07:46:55;;;;;;;10.70;6.40;;;;;;;;;;6167931;23;20454;-90
2022/03/09 07:49:22;;;;;;;9.73;6.40;;;;;;;;;;6167751;23;20020;-89
2022/03/09 07:51:49;;;;;;;12.88;6.68;;;;;;;;;;6168011;23;20028;-89
2022/03/09 07:54:16;;;;;;;16.75;7.13;;;;;;;;;;6168179;23;20117;-89
2022/03/09 07:56:43;;;;;;;12.18;6.25;;;;;;;;;;6167454;23;20024;-90
2022/03/09 07:59:11;;;;;;;18.80;7.30;;;;;;;;;;6168049;23;20020;-88
2022/03/09 08:01:39;;;;;;;12.63;6.70;;;;;;;;;;6168868;23;20020;-89
2022/03/09 08:04:06;;;;;;;9.32;6.05;;;;;;;;;;6167110;23;20019;-92
2022/03/09 08:06:32;;;;;;;8.65;6.40;;;;;;;;;;6193098;23;20048;-88
2022/03/09 08:08:58;;;;;;;10.43;6.43;;;;;;;;;;6192098;23;20015;-90
2022/03/09 08:11:26;;;;;;;9.30;6.47;;;;;;;;;;6169186;23;20082;-90
2022/03/09 08:13:53;;;;;;;11.52;6.55;;;;;;;;;;6220065;23;20012;-90
2022/03/09 08:16:22;;;;;;;15.50;7.15;;;;;;;;;;6193726;23;20023;-89
2022/03/09 08:18:51;;;;;;;10.32;6.97;;;;;;;;;;6167874;23;20386;-89
2022/03/09 08:21:18;;;;;;;13.35;8.23;;;;;;;;;;6190998;23;20024;-88
2022/03/09 08:23:44;;;;;;;10.88;6.40;;;;;;;;;;6167781;23;20087;-90
2022/03/09 08:26:10;;;;;;;13.77;7.60;;;;;;;;;;6167430;23;20040;-91
2022/03/09 08:28:36;;;;;;;10.13;6.70;;;;;;;;;;6161814;23;20017;-88
2022/03/09 08:31:02;;;;;;;11.82;6.53;;;;;;;;;;6187755;23;20018;-87
2022/03/09 08:33:28;;;;;;;12.07;6.25;;;;;;;;;;6161461;23;20019;-86
2022/03/09 08:35:55;;;;;;;11.68;7.55;;;;;;;;;;6161406;23;20021;-87
2022/03/09 08:38:21;;;;;;;11.57;7.18;;;;;;;;;;6185898;23;20027;-88
2022/03/09 08:40:47;;;;;;;10.77;7.15;;;;;;;;;;6162744;23;20028;-88
2022/03/09 08:43:13;;;;;;;10.13;7.47;;;;;;;;;;6186749;23;20013;-86
2022/03/09 08:45:39;;;;;;;9.77;6.57;;;;;;;;;;6161898;23;20087;-88
2022/03/09 08:48:08;;;;;;;10.95;6.68;;;;;;;;;;6186017;23;20036;-88
2022/03/09 08:50:34;;;;;;;12.95;6.78;;;;;;;;;;6185908;23;20017;-88
2022/03/09 08:53:00;;;;;;;12.85;6.72;;;;;;;;;;6187874;23;20036;-87
2022/03/09 08:55:26;;;;;;;9.73;6.53;;;;;;;;;;6163272;23;20390;-88
2022/03/09 08:57:52;;;;;;;10.45;6.63;;;;;;;;;;6162302;23;20047;-89
2022/03/09 09:00:18;;;;;;;8.32;6.40;;;;;;;;;;6162383;23;20021;-89
2022/03/09 09:02:45;;;;;;;8.50;5.68;;;;;;;;;;6162345;23;20013;-88
2022/03/09 09:05:12;;;;;;;9.73;6.68;;;;;;;;;;6188934;23;20052;-88
2022/03/09 09:07:38;;;;;;;8.75;6.28;;;;;;;;;;6187051;23;20391;-88
2022/03/09 09:10:06;;;;;;;6.47;5.15;;;;;;;;;;6161548;23;20021;-86
2022/03/09 09:12:33;;;;;;;12.68;5.93;;;;;;;;;;6162304;23;20091;-88
2022/03/09 09:14:59;;;;;;;7.55;6.03;;;;;;;;;;6186633;23;20375;-87
2022/03/09 09:17:25;;;;;;;9.27;6.38;;;;;;;;;;6186106;23;20028;-87
2022/03/09 09:19:52;;;;;;;12.52;5.97;;;;;;;;;;6162220;23;20088;-88
2022/03/09 09:22:18;;;;;;;9.82;6.20;;;;;;;;;;6161874;23;20017;-87
2022/03/09 09:24:45;;;;;;;10.23;6.43;;;;;;;;;;6162566;23;20339;-88
2022/03/09 09:27:11;;;;;;;10.23;5.53;;;;;;;;;;6165812;23;20024;-87
2022/03/09 09:29:37;;;;;;;9.82;6.13;;;;;;;;;;6191317;23;20021;-87
2022/03/09 09:32:04;;;;;;;9.00;5.45;;;;;;;;;;6166324;23;20027;-88
2022/03/09 09:34:30;;;;;;;7.07;5.20;;;;;;;;;;6167183;23;20013;-87
2022/03/09 09:36:56;;;;;;;12.05;6.50;;;;;;;;;;6191521;23;20099;-87
2022/03/09 09:39:22;;;;;;;8.48;5.88;;;;;;;;;;6167027;23;20388;-88
2022/03/09 09:41:54;;;;;;;10.35;6.10;;;;;;;;;;6166981;23;20339;-88
2022/03/09 09:44:22;;;;;;;8.73;5.53;;;;;;;;;;6192744;23;20021;-88
2022/03/09 09:46:48;;;;;;;15.13;7.00;;;;;;;;;;6166480;23;20017;-87
2022/03/09 09:49:15;;;;;;;11.93;6.18;;;;;;;;;;6166862;23;20023;-88
2022/03/09 09:51:42;;;;;;;8.80;6.45;;;;;;;;;;6191203;23;20027;-88
2022/03/09 09:54:10;;;;;;;10.57;6.03;;;;;;;;;;6166429;23;20048;-88
2022/03/09 09:56:40;;;;;;;8.80;5.70;;;;;;;;;;6166514;23;20016;-87
2022/03/09 09:59:07;;;;;;;7.80;5.68;;;;;;;;;;6191601;23;20316;-88
2022/03/09 10:01:35;;;;;;;11.05;5.95;;;;;;;;;;6190408;23;20012;-88
2022/03/09 10:04:01;;;;;;;8.88;5.68;;;;;;;;;;6217866;23;20029;-88
2022/03/09 10:06:27;;;;;;;11.15;6.90;;;;;;;;;;6190819;23;20020;-88
2022/03/09 10:09:00;;;;;;;17.52;8.18;;;;;;;;;;6192290;23;20039;-87
2022/03/09 10:11:43;;;;;;;10.50;6.10;;;;;;;;;;6193484;23;20095;-88
2022/03/09 10:14:15;;;;;;;18.73;6.32;;;;;;;;;;6168950;23;20095;-87
2022/03/09 10:17:06;;;;;;;9.65;6.35;;;;;;;;;;6193717;23;20016;-88
2022/03/09 10:19:33;;;;;;;14.88;5.38;;;;;;;;;;6168368;23;20016;-90
2022/03/09 10:22:20;;;;;;;9.27;6.20;;;;;;;;;;6168402;23;20047;-87
2022/03/09 10:24:46;;;;;;;8.15;5.95;;;;;;;;;;6199075;23;20013;-87
2022/03/09 10:27:34;;;;;;;12.35;6.88;;;;;;;;;;6169334;23;20104;-89
2022/03/09 10:30:03;;;;;;;8.90;6.20;;;;;;;;;;6169130;23;20025;-88
2022/03/09 10:32:47;;;;;;;10.07;6.25;;;;;;;;;;6169265;23;20016;-91
2022/03/09 10:35:15;;;;;;;11.40;6.43;;;;;;;;;;6194567;23;20016;-90
2022/03/09 10:37:41;;;;;;;12.25;6.38;;;;;;;;;;6168547;23;20056;-90
2022/03/09 10:40:15;;;;;;;8.88;6.38;;;;;;;;;;6168836;23;20020;-89
2022/03/09 10:42:41;;;;;;;10.65;6.07;;;;;;;;;;6168548;23;20016;-91
2022/03/09 10:45:09;;;;;;;10.35;6.03;;;;;;;;;;6167583;23;20544;-89
2022/03/09 10:47:42;;;;;;;10.02;6.03;;;;;;;;;;6192884;23;20024;-90
2022/03/09 10:50:13;;;;;;;11.63;7.07;;;;;;;;;;6168036;23;20076;-90
2022/03/09 10:52:45;;;;;;;9.13;5.97;;;;;;;;;;6167263;23;20396;-90
2022/03/09 10:55:21;;;;;;;9.88;6.63;;;;;;;;;;6167289;23;20017;-88
2022/03/09 10:58:05;;;;;;;9.70;6.20;;;;;;;;;;6191981;23;20055;-89
2022/03/09 11:00:36;;;;;;;10.98;7.07;;;;;;;;;;6192080;23;20017;-89
2022/03/09 11:03:06;;;;;;;12.32;7.60;;;;;;;;;;6167688;23;20024;-89
2022/03/09 11:05:33;;;;;;;9.18;6.07;;;;;;;;;;6168071;23;20017;-91
2022/03/09 11:07:59;;;;;;;10.05;6.43;;;;;;;;;;6167378;23;20013;-90
2022/03/09 11:10:26;;;;;;;8.10;5.85;;;;;;;;;;6167045;23;20013;-88
2022/03/09 11:12:52;;;;;;;11.38;6.57;;;;;;;;;;6166932;23;20020;-89
2022/03/09 11:15:21;;;;;;;9.10;6.50;;;;;;;;;;6192708;23;20024;-89
2022/03/09 11:17:49;;;;;;;9.75;6.32;;;;;;;;;;6167190;23;20024;-89
2022/03/09 11:20:15;;;;;;;12.63;7.43;;;;;;;;;;6191165;23;20013;-90
2022/03/09 11:22:42;;;;;;;10.05;6.88;;;;;;;;;;6166993;23;20067;-90
2022/03/09 11:25:09;;;;;;;10.85;6.50;;;;;;;;;;6167786;23;20044;-89
2022/03/09 11:27:41;;;;;;;13.60;6.95;;;;;;;;;;6161981;23;20450;-89
2022/03/09 11:30:24;;;;;;;10.85;6.82;;;;;;;;;;6187815;23;20021;-88
2022/03/09 11:32:58;;;;;;;9.27;6.53;;;;;;;;;;6187275;23;20036;-89
2022/03/09 11:35:40;;;;;;;12.52;7.90;;;;;;;;;;6161831;23;20021;-89
2022/03/09 11:38:26;;;;;;;10.38;7.68;;;;;;;;;;6186583;23;20067;-88
2022/03/09 11:41:14;;;;;;;9.48;6.65;;;9.70;99.90;;;;;;6171632;23;20092;-89
2022/03/09 11:43:46;;;;;;;9.80;6.43;;;;;;;;;;6187276;23;20491;-89
2022/03/09 11:46:26;;;;;;;9.60;7.07;;;;;;;;;;6187987;23;20056;-89
2022/03/09 11:48:56;;;;;;;12.32;6.65;;;;;;;;;;6187657;23;20398;-89
2022/03/09 11:51:30;;;;;;;9.32;6.40;;;;;;;;;;6162766;23;20088;-88
2022/03/09 11:54:02;;;;;;;9.02;6.50;;;;;;;;;;6163841;23;20013;-89
2022/03/09 11:56:42;;;;;;;12.45;6.50;;;;;;;;;;6164101;23;20059;-89
2022/03/09 11:59:28;;;;;;;9.82;6.80;;;;;;;;;;6163191;23;20017;-89
2022/03/09 12:01:57;;;;;;;11.20;6.50;;;;;;;;;;6187414;23;20017;-88
2022/03/09 12:04:45;;;;;;;9.75;7.03;;;;;;;;;;6162991;23;20100;-88
2022/03/09 12:07:12;;;;;;;10.65;6.78;;;;;;;;;;6187568;23;20521;-88
2022/03/09 12:10:06;;;;;;;7.30;5.30;;;;;;;;;;6190215;23;20017;-88
2022/03/09 12:12:58;;;;;;;11.80;6.97;;;;;;;;;;6188303;23;20021;-88
2022/03/09 12:15:25;;;;;;;14.70;7.18;;;;;;;;;;6190658;23;20084;-89
2022/03/09 12:17:54;;;;;;;9.77;6.45;;;;;;;;;;6164123;23;20032;-89
2022/03/09 12:20:21;;;;;;;10.45;7.22;;;;;;;;;;6140073;23;20072;-89
2022/03/09 12:22:56;;;;;;;11.20;6.55;;;;;;;;;;6163595;23;20024;-89
2022/03/09 12:25:38;;;;;;;9.75;6.90;;;;;;;;;;6163269;23;20023;-88
2022/03/09 12:28:23;;;;;;;9.80;7.05;;;;;;;;;;6163063;23;20128;-89
2022/03/09 12:31:07;;;;;;;8.57;6.13;;;11.10;99.90;;;;;;6186996;23;20486;-89
2022/03/09 12:33:35;;;;;;;14.55;7.55;;;;;;;;;;6162116;23;20513;-90
2022/03/09 12:36:14;;;;;;;10.23;6.68;;;;;;;;;;6186685;23;20021;-88
2022/03/09 12:38:49;;;;;;;14.43;6.72;;;;;;;;;;6162251;23;20029;-87
2022/03/09 12:41:24;;;;;;;14.38;7.22;;;;;;;;;;6161704;23;20416;-88
2022/03/09 12:43:51;;;;;;;16.35;7.75;;;;;;;;;;6186375;23;20016;-88
2022/03/09 12:46:20;;;;;;;10.43;7.20;;;;;;;;;;6161472;23;20384;-87
2022/03/09 12:48:46;;;;;;;11.70;6.30;;;;;;;;;;6186777;23;20013;-89
2022/03/09 12:51:12;;;;;;;11.02;6.53;;;;;;;;;;6161556;23;20017;-88
2022/03/09 12:53:38;;;;;;;13.02;7.50;;;;;;;;;;6162227;23;20100;-89
2022/03/09 12:56:16;;;;;;;12.27;6.97;;;;;;;;;;6188040;23;20075;-89
2022/03/09 12:58:43;;;;;;;7.57;5.95;;;;;;;;;;6161754;23;20320;-88
2022/03/09 13:01:09;;;;;;;8.38;6.05;;;;;;;;;;6161456;23;20017;-90
2022/03/09 13:03:37;;;;;;;10.25;6.53;;;;;;;;;;6161345;23;20056;-88
2022/03/09 13:06:06;;;;;;;9.35;6.22;;;;;;;;;;6161874;23;20017;-88
2022/03/09 13:08:35;;;;;;;8.38;6.13;;;;;;;;;;6162061;23;20025;-88
2022/03/09 13:11:04;;;;;;;10.52;6.25;;;;;;;;;;6161707;23;20017;-87
2022/03/09 13:13:31;;;;;;;9.10;6.63;;;;;;;;;;6161721;23;20048;-87
2022/03/09 13:15:59;;;;;;;11.30;7.18;;;;;;;;;;6160996;23;20017;-88
2022/03/09 13:18:35;;;;;;;9.20;6.60;;;;;;;;;;6161507;23;20017;-88
2022/03/09 13:21:02;;;;;;;8.95;6.95;;;;;;;;;;6187292;23;20450;-88
2022/03/09 13:23:29;;;;;;;9.40;6.63;;;;;;;;;;6161972;23;20017;-90
2022/03/09 13:25:56;;;;;;;9.05;6.70;;;;;;;;;;6160567;23;20013;-87
2022/03/09 13:28:27;;;;;;;12.20;6.60;;;;;;;;;;6160089;23;20051;-88
2022/03/09 13:30:54;;;;;;;12.52;7.60;;;;;;;;;;6162212;23;20020;-86
2022/03/09 13:33:22;;;;;;;8.63;6.13;;;;;;;;;;6188106;23;20020;-88
2022/03/09 13:35:49;;;;;;;10.02;7.38;;;;;;;;;;6186161;23;20092;-88
2022/03/09 13:38:24;;;;;;;10.02;7.15;;;;;;;;;;6161081;23;20017;-88
2022/03/09 13:40:53;;;;;;;9.82;7.20;;;;;;;;;;6161769;23;20017;-87
2022/03/09 13:43:19;;;;;;;12.88;8.10;;;;;;;;;;6187933;23;20017;-88
2022/03/09 13:45:45;;;;;;;12.13;8.13;;;;;;;;;;6188535;23;20024;-87
2022/03/09 13:48:25;;;;;;;9.55;7.53;;;;;;;;;;6188302;23;20455;-88
2022/03/09 13:51:01;;;;;;;11.20;7.70;;;;;;;;;;6164349;23;20529;-91
2022/03/09 13:53:36;;;;;;;10.20;7.15;;;;;;;;;;6164867;23;20092;-90
2022/03/09 13:56:03;;;;;;;8.80;6.45;;;;;;;;;;6163678;23;20020;-89
2022/03/09 13:58:38;;;;;;;15.02;8.65;;;;;;;;;;6162757;23;20021;-90
2022/03/09 14:01:06;;;;;;;12.77;7.75;;;;;;;;;;6188319;23;20057;-88
2022/03/09 14:03:39;;;;;;;11.43;6.82;;;;;;;;;;6189209;23;20450;-89
2022/03/09 14:06:12;;;;;;;12.00;7.95;;;;;;;;;;6163830;23;20025;-89
2022/03/09 14:08:38;;;;;;;13.23;8.13;;;;;;;;;;6163274;23;20017;-91
2022/03/09 14:11:07;;;;;;;9.80;7.32;;;;;;;;;;6163852;23;20027;-90
2022/03/09 14:13:33;;;;;;;10.60;7.15;;;;;;;;;;6164254;23;20049;-89
2022/03/09 14:16:00;;;;;;;14.35;7.28;;;;;;;;;;6189900;23;20021;-89
2022/03/09 14:18:26;;;;;;;12.65;7.57;;;;;;;;;;6163216;23;20021;-89
2022/03/09 14:20:53;;;;;;;11.07;7.63;;;;;;;;;;6189983;23;20017;-89
2022/03/09 14:23:19;;;;;;;11.70;8.18;;;;;;;;;;6187862;23;20017;-89
2022/03/09 14:25:51;;;;;;;13.82;8.80;;;;;;;;;;6163288;23;20534;-89
2022/03/09 14:28:17;;;;;;;10.45;7.40;;;;;;;;;;6187365;23;20025;-88
2022/03/09 14:30:43;;;;;;;14.50;9.18;;;;;;;;;;6188052;23;20067;-88
2022/03/09 14:33:09;;;;;;;9.18;7.30;;;;;;;;;;6187593;23;20016;-89
2022/03/09 14:35:35;;;;;;;12.85;8.90;;;;;;;;;;6162861;23;20024;-88
2022/03/09 14:38:02;;;;;;;10.77;7.88;;;;;;;;;;6188416;23;20024;-89
2022/03/09 14:40:28;;;;;;;14.95;9.10;;;;;;;;;;6164004;23;20021;-87
2022/03/09 14:42:55;;;;;;;14.05;8.43;;;;;;;;;;6162618;23;20455;-88
2022/03/09 14:45:22;;;;;;;13.77;8.32;;;;;;;;;;6186885;23;20057;-88